Time;durP1;ratioP1;P1;durP2;ratioP2;P2;SDS_P1;SDS_P2;PMS_P1;PMS_P2;Temp;Humidity;BMP_temperature;BMP_pressure;BME280_temperature;BME280_humidity;BME280_pressure;Samples;Min_cycle;Max_cycle;Signal;HPM_P1;HPM_P2
2022/03/08 00:00:54;;;;;;;17.17;9.73;;;3.70;51.40;;;;;;5094442;28;20200;-87
2022/03/08 00:03:26;;;;;;;15.43;8.90;;;3.70;51.30;;;;;;5094133;28;20176;-87
2022/03/08 00:05:51;;;;;;;15.35;10.18;;;3.80;51.40;;;;;;5100143;28;20433;-87
2022/03/08 00:08:17;;;;;;;17.10;9.47;;;3.90;51.30;;;;;;5112147;28;20172;-87
2022/03/08 00:10:43;;;;;;;15.43;9.40;;;3.80;51.20;;;;;;5116702;28;20186;-87
2022/03/08 00:13:09;;;;;;;13.57;9.60;;;3.80;52.10;;;;;;5118187;28;20175;-87
2022/03/08 00:15:35;;;;;;;18.33;9.23;;;3.70;51.60;;;;;;5117276;28;20475;-86
2022/03/08 00:18:01;;;;;;;14.35;9.25;;;3.80;51.60;;;;;;5117543;28;20432;-86
2022/03/08 00:20:26;;;;;;;16.40;8.93;;;3.70;51.60;;;;;;5109490;28;20196;-86
2022/03/08 00:22:53;;;;;;;13.60;8.17;;;3.70;51.80;;;;;;5107583;28;20229;-83
2022/03/08 00:25:19;;;;;;;13.68;8.80;;;3.60;51.90;;;;;;5099724;28;20433;-87
2022/03/08 00:27:47;;;;;;;15.07;8.80;;;3.50;52.20;;;;;;5095504;28;20214;-88
2022/03/08 00:30:21;;;;;;;16.88;7.85;;;3.60;52.20;;;;;;5095077;28;20823;-89
2022/03/08 00:32:48;;;;;;;17.92;8.30;;;3.50;52.20;;;;;;5094552;28;20183;-87
2022/03/08 00:35:14;;;;;;;12.20;7.88;;;3.50;52.20;;;;;;5095297;28;20287;-87
2022/03/08 00:37:40;;;;;;;13.60;8.32;;;3.40;52.30;;;;;;5095517;28;20636;-85
2022/03/08 00:40:08;;;;;;;14.70;8.27;;;3.30;52.60;;;;;;5096256;28;20183;-87
2022/03/08 00:42:34;;;;;;;15.98;8.77;;;3.30;52.90;;;;;;5095365;28;20415;-86
2022/03/08 00:45:00;;;;;;;15.40;8.70;;;3.50;52.90;;;;;;5095747;28;20202;-86
2022/03/08 00:47:26;;;;;;;17.23;9.25;;;3.60;52.70;;;;;;5094498;28;20417;-87
2022/03/08 00:49:52;;;;;;;12.70;7.00;;;3.50;52.50;;;;;;5093663;28;20266;-87
2022/03/08 00:52:18;;;;;;;13.35;7.22;;;3.30;52.30;;;;;;5093793;28;20627;-86
2022/03/08 00:54:44;;;;;;;11.67;8.10;;;3.20;52.50;;;;;;5093166;28;20204;-86
2022/03/08 00:57:10;;;;;;;11.07;7.73;;;3.20;52.80;;;;;;5094585;28;20430;-86
2022/03/08 00:59:35;;;;;;;14.23;7.63;;;3.20;52.80;;;;;;5094365;28;20175;-87
2022/03/08 01:02:01;;;;;;;12.77;7.33;;;3.20;53.00;;;;;;5094331;28;20198;-86
2022/03/08 01:04:27;;;;;;;17.25;8.35;;;3.20;53.00;;;;;;5093671;28;20208;-86
2022/03/08 01:06:55;;;;;;;17.83;9.40;;;3.20;53.10;;;;;;5093842;28;20176;-86
2022/03/08 01:09:21;;;;;;;15.05;8.85;;;3.20;53.10;;;;;;5095506;28;20418;-87
2022/03/08 01:11:47;;;;;;;12.98;7.70;;;3.10;53.20;;;;;;5093694;28;20195;-87
2022/03/08 01:14:13;;;;;;;14.73;7.43;;;3.10;53.50;;;;;;5093121;28;20196;-87
2022/03/08 01:16:39;;;;;;;13.10;8.05;;;3.10;53.50;;;;;;5094934;28;20445;-88
2022/03/08 01:19:05;;;;;;;12.80;7.47;;;3.00;53.60;;;;;;5109150;28;20184;-87
2022/03/08 01:21:34;;;;;;;13.27;7.32;;;2.90;53.80;;;;;;5112038;28;20233;-87
2022/03/08 01:24:00;;;;;;;10.55;7.18;;;2.80;54.00;;;;;;5111311;28;20269;-87
2022/03/08 01:26:26;;;;;;;14.82;8.68;;;2.80;54.20;;;;;;5111020;28;20156;-86
2022/03/08 01:28:52;;;;;;;13.65;8.18;;;2.90;54.30;;;;;;5110863;28;20244;-87
2022/03/08 01:31:18;;;;;;;10.30;6.97;;;2.70;55.10;;;;;;5111784;28;20179;-87
2022/03/08 01:33:44;;;;;;;14.85;7.72;;;2.80;54.50;;;;;;5110300;28;20942;-86
2022/03/08 01:36:11;;;;;;;13.07;7.23;;;2.80;54.60;;;;;;5110626;28;20180;-86
2022/03/08 01:38:36;;;;;;;9.73;6.57;;;2.80;54.60;;;;;;5112848;28;20425;-86
2022/03/08 01:41:02;;;;;;;12.10;7.70;;;2.80;54.60;;;;;;5117714;28;20184;-85
2022/03/08 01:43:28;;;;;;;17.77;7.97;;;2.70;54.70;;;;;;5117627;28;20240;-85
2022/03/08 01:45:54;;;;;;;16.50;7.47;;;2.80;54.80;;;;;;5115918;28;20176;-86
2022/03/08 01:48:20;;;;;;;13.77;8.13;;;2.70;54.80;;;;;;5116847;28;20174;-85
2022/03/08 01:50:46;;;;;;;14.40;7.57;;;2.80;54.90;;;;;;5117085;28;20180;-85
2022/03/08 01:53:13;;;;;;;17.42;9.23;;;2.80;54.70;;;;;;5104010;28;20179;-85
2022/03/08 01:55:39;;;;;;;10.77;8.07;;;2.90;54.60;;;;;;5097138;28;20695;-85
2022/03/08 01:58:05;;;;;;;15.10;7.83;;;2.90;54.60;;;;;;5098047;28;20186;-85
2022/03/08 02:00:32;;;;;;;13.13;8.20;;;2.90;54.50;;;;;;5096858;28;20458;-85
2022/03/08 02:02:58;;;;;;;13.60;8.02;;;2.80;54.60;;;;;;5106648;28;20180;-86
2022/03/08 02:05:25;;;;;;;13.45;7.85;;;2.70;54.80;;;;;;5114140;28;20687;-85
2022/03/08 02:07:52;;;;;;;11.57;7.20;;;2.60;55.00;;;;;;5096655;28;20190;-85
2022/03/08 02:10:29;;;;;;;13.73;8.35;;;2.60;55.30;;;;;;5096738;28;20572;-85
2022/03/08 02:12:54;;;;;;;14.07;7.43;;;2.70;55.50;;;;;;5097688;28;20229;-85
2022/03/08 02:15:26;;;;;;;15.80;7.90;;;2.60;55.40;;;;;;5097300;28;20207;-87
2022/03/08 02:17:54;;;;;;;14.52;8.75;;;2.50;55.60;;;;;;5096342;28;20176;-86
2022/03/08 02:20:20;;;;;;;12.35;8.10;;;2.50;55.90;;;;;;5096594;28;20694;-87
2022/03/08 02:22:48;;;;;;;14.93;7.70;;;2.30;56.00;;;;;;5096547;28;20180;-88
2022/03/08 02:25:14;;;;;;;10.73;8.43;;;2.40;56.30;;;;;;5097705;28;20446;-88
2022/03/08 02:27:42;;;;;;;11.75;7.47;;;2.30;56.40;;;;;;5098095;28;20682;-88
2022/03/08 02:30:13;;;;;;;12.32;8.30;;;2.30;56.40;;;;;;5098674;28;20176;-88
2022/03/08 02:32:39;;;;;;;13.10;8.30;;;2.20;56.50;;;;;;5097787;28;20195;-88
2022/03/08 02:35:20;;;;;;;12.82;7.03;;;2.10;56.90;;;;;;5096291;28;20196;-89
2022/03/08 02:37:50;;;;;;;15.82;8.15;;;2.20;57.00;;;;;;5096831;28;20192;-88
2022/03/08 02:40:28;;;;;;;9.70;8.10;;;2.10;57.20;;;;;;5098408;28;20176;-88
2022/03/08 02:42:54;;;;;;;9.85;7.03;;;2.10;57.20;;;;;;5098695;28;20186;-88
2022/03/08 02:45:21;;;;;;;19.00;9.00;;;2.20;57.30;;;;;;5095794;28;20196;-86
2022/03/08 02:47:47;;;;;;;13.18;7.88;;;2.20;57.20;;;;;;5097581;28;20517;-86
2022/03/08 02:50:31;;;;;;;13.43;7.73;;;2.30;57.20;;;;;;5096559;28;20204;-86
2022/03/08 02:52:57;;;;;;;21.70;8.23;;;2.30;57.00;;;;;;5096026;28;20275;-87
2022/03/08 02:55:29;;;;;;;14.80;8.57;;;2.20;57.00;;;;;;5095738;28;20192;-87
2022/03/08 02:57:56;;;;;;;12.18;8.32;;;2.20;57.00;;;;;;5096153;28;20199;-86
2022/03/08 03:00:23;;;;;;;19.02;9.43;;;2.20;57.00;;;;;;5079655;28;20218;-87
2022/03/08 03:02:49;;;;;;;11.35;7.45;;;2.20;57.20;;;;;;5097005;28;20183;-87
2022/03/08 03:05:15;;;;;;;13.73;8.00;;;2.10;57.20;;;;;;5099943;28;20192;-87
2022/03/08 03:07:41;;;;;;;13.90;8.40;;;2.20;57.30;;;;;;5116672;28;20184;-87
2022/03/08 03:10:13;;;;;;;14.05;7.00;;;2.30;57.20;;;;;;5117227;28;20275;-86
2022/03/08 03:12:39;;;;;;;13.43;8.50;;;2.40;56.90;;;;;;5113603;28;20199;-86
2022/03/08 03:15:07;;;;;;;13.73;8.90;;;2.40;56.90;;;;;;5105657;28;20207;-86
2022/03/08 03:17:33;;;;;;;11.50;8.65;;;2.40;56.70;;;;;;5104662;28;20497;-87
2022/03/08 03:19:59;;;;;;;13.30;7.33;;;2.50;56.70;;;;;;5105422;28;20225;-86
2022/03/08 03:22:25;;;;;;;16.00;8.10;;;2.50;56.40;;;;;;5101925;28;20457;-88
2022/03/08 03:24:50;;;;;;;12.83;7.20;;;2.60;56.30;;;;;;5097251;28;20449;-89
2022/03/08 03:27:16;;;;;;;14.23;7.17;;;2.60;56.20;;;;;;5096756;28;20635;-89
2022/03/08 03:29:42;;;;;;;11.30;7.20;;;2.40;56.00;;;;;;5096115;28;20176;-88
2022/03/08 03:32:08;;;;;;;10.40;7.57;;;2.40;56.10;;;;;;5097507;28;20176;-88
2022/03/08 03:34:33;;;;;;;11.80;7.43;;;2.30;56.20;;;;;;5095272;28;20275;-88
2022/03/08 03:36:59;;;;;;;14.00;7.97;;;2.20;56.40;;;;;;5095502;28;20425;-86
2022/03/08 03:39:25;;;;;;;12.77;7.07;;;2.00;56.70;;;;;;5095329;28;20198;-86
2022/03/08 03:41:51;;;;;;;16.52;7.28;;;1.90;57.90;;;;;;5077658;28;20211;-87
2022/03/08 03:44:17;;;;;;;11.50;7.67;;;2.00;57.30;;;;;;5108191;28;20208;-86
2022/03/08 03:46:42;;;;;;;10.80;6.30;;;2.20;57.30;;;;;;5100003;28;20468;-86
2022/03/08 03:49:08;;;;;;;13.67;8.07;;;2.10;57.20;;;;;;5095627;28;20418;-86
2022/03/08 03:51:34;;;;;;;14.53;8.37;;;2.10;57.40;;;;;;5097013;28;20425;-86
2022/03/08 03:54:00;;;;;;;10.27;6.97;;;2.10;57.40;;;;;;5086319;28;20928;-87
2022/03/08 03:56:26;;;;;;;14.83;9.07;;;2.30;57.40;;;;;;5113855;28;20184;-85
2022/03/08 03:58:52;;;;;;;17.42;8.57;;;2.20;57.20;;;;;;5102264;28;20180;-85
2022/03/08 04:01:23;;;;;;;15.30;9.27;;;2.20;57.30;;;;;;5098155;28;20657;-88
2022/03/08 04:03:49;;;;;;;18.27;7.82;;;2.10;57.40;;;;;;5102308;28;20752;-84
2022/03/08 04:06:15;;;;;;;15.70;9.30;;;2.20;57.40;;;;;;5115032;28;20251;-84
2022/03/08 04:08:41;;;;;;;15.57;7.90;;;2.20;57.30;;;;;;5100474;28;20195;-87
2022/03/08 04:11:06;;;;;;;15.00;9.03;;;2.30;57.30;;;;;;5105720;28;20413;-87
2022/03/08 04:13:32;;;;;;;14.63;8.47;;;2.20;57.10;;;;;;5110417;28;20418;-88
2022/03/08 04:15:58;;;;;;;14.70;7.53;;;2.10;57.20;;;;;;5095889;28;20857;-88
2022/03/08 04:18:24;;;;;;;12.37;8.50;;;2.20;57.30;;;;;;5097752;28;20171;-88
2022/03/08 04:20:49;;;;;;;14.20;8.10;;;2.10;57.30;;;;;;5100700;28;20532;-87
2022/03/08 04:23:15;;;;;;;16.50;7.10;;;2.00;57.40;;;;;;5113211;28;20172;-86
2022/03/08 04:25:41;;;;;;;13.23;7.87;;;2.00;57.50;;;;;;5113125;28;20454;-86
2022/03/08 04:28:06;;;;;;;16.00;8.97;;;2.10;57.60;;;;;;5113852;28;20168;-86
2022/03/08 04:30:32;;;;;;;15.80;8.13;;;2.10;57.50;;;;;;5113990;28;20176;-86
2022/03/08 04:32:58;;;;;;;14.00;7.60;;;2.10;57.60;;;;;;5112853;28;20735;-86
2022/03/08 04:35:24;;;;;;;10.85;6.55;;;2.00;57.50;;;;;;5093541;28;20271;-86
2022/03/08 04:37:50;;;;;;;15.93;8.25;;;2.00;57.60;;;;;;5107098;28;20544;-86
2022/03/08 04:40:16;;;;;;;16.57;7.30;;;1.90;57.80;;;;;;5101458;28;20203;-86
2022/03/08 04:42:42;;;;;;;12.67;6.83;;;1.80;58.20;;;;;;5099591;28;20471;-87
2022/03/08 04:45:10;;;;;;;17.75;7.03;;;1.80;58.40;;;;;;5099866;28;20204;-86
2022/03/08 04:47:37;;;;;;;13.65;7.93;;;1.70;58.50;;;;;;5082172;28;20191;-86
2022/03/08 04:50:13;;;;;;;18.60;9.18;;;1.70;58.80;;;;;;5102236;28;20176;-86
2022/03/08 04:52:40;;;;;;;13.27;7.70;;;1.80;59.00;;;;;;5107480;28;20172;-87
2022/03/08 04:55:07;;;;;;;18.30;9.80;;;1.80;59.00;;;;;;5095823;28;20457;-88
2022/03/08 04:57:33;;;;;;;10.60;7.15;;;1.80;58.90;;;;;;5096720;28;20175;-88
2022/03/08 04:59:59;;;;;;;14.98;8.65;;;1.70;59.10;;;;;;5096123;28;20227;-88
2022/03/08 05:02:25;;;;;;;14.63;8.90;;;1.70;59.30;;;;;;5096276;28;20203;-84
2022/03/08 05:04:51;;;;;;;14.83;8.00;;;1.80;59.20;;;;;;5098172;28;21041;-89
2022/03/08 05:07:17;;;;;;;22.77;9.23;;;2.10;58.80;;;;;;5095434;28;20578;-89
2022/03/08 05:09:42;;;;;;;14.15;8.80;;;2.10;58.50;;;;;;5094349;28;20438;-86
2022/03/08 05:12:09;;;;;;;16.10;8.63;;;2.00;58.20;;;;;;5095214;28;20191;-84
2022/03/08 05:14:37;;;;;;;13.95;8.13;;;1.90;58.30;;;;;;5100336;28;20617;-85
2022/03/08 05:17:03;;;;;;;16.05;9.00;;;2.00;58.50;;;;;;5102725;28;20571;-86
2022/03/08 05:19:29;;;;;;;13.80;8.10;;;1.90;58.40;;;;;;5103153;28;20271;-86
2022/03/08 05:21:54;;;;;;;13.10;9.00;;;1.80;58.40;;;;;;5099925;28;20231;-86
2022/03/08 05:24:20;;;;;;;12.17;8.73;;;1.90;58.60;;;;;;5101902;28;20664;-86
2022/03/08 05:26:46;;;;;;;15.90;8.40;;;2.00;58.30;;;;;;5098151;28;20414;-85
2022/03/08 05:29:11;;;;;;;12.57;8.83;;;1.70;58.40;;;;;;5098399;28;20252;-86
2022/03/08 05:31:37;;;;;;;16.37;9.30;;;1.80;58.60;;;;;;5100107;28;20437;-86
2022/03/08 05:34:03;;;;;;;13.40;8.30;;;1.60;58.60;;;;;;5098036;28;20699;-86
2022/03/08 05:36:29;;;;;;;17.52;10.65;;;1.50;59.00;;;;;;5099257;28;20662;-86
2022/03/08 05:38:55;;;;;;;17.30;9.40;;;1.50;59.20;;;;;;5114123;28;20187;-86
2022/03/08 05:41:21;;;;;;;18.80;9.23;;;1.70;59.30;;;;;;5099357;28;20503;-87
2022/03/08 05:43:46;;;;;;;13.43;8.00;;;1.70;59.10;;;;;;5096976;28;20441;-87
2022/03/08 05:46:12;;;;;;;22.70;9.73;;;1.80;59.20;;;;;;5098839;28;20218;-85
2022/03/08 05:48:38;;;;;;;12.30;8.33;;;1.70;59.10;;;;;;5100286;28;20410;-86
2022/03/08 05:51:03;;;;;;;15.87;9.10;;;1.70;59.20;;;;;;5114792;28;20183;-86
2022/03/08 05:53:29;;;;;;;24.30;9.60;;;1.70;59.20;;;;;;5111416;28;20171;-86
2022/03/08 05:55:55;;;;;;;15.38;9.05;;;1.80;59.10;;;;;;5099270;28;20183;-87
2022/03/08 05:58:21;;;;;;;10.50;7.10;;;1.80;59.00;;;;;;5105286;28;20243;-87
2022/03/08 06:00:47;;;;;;;20.17;8.90;;;1.80;59.10;;;;;;5118746;28;20196;-87
2022/03/08 06:03:13;;;;;;;15.77;8.50;;;1.80;59.10;;;;;;5120206;28;20413;-86
2022/03/08 06:05:38;;;;;;;16.13;9.00;;;1.80;59.00;;;;;;5119722;28;20234;-87
2022/03/08 06:08:05;;;;;;;18.10;8.97;;;1.70;59.20;;;;;;5102296;28;20422;-86
2022/03/08 06:10:32;;;;;;;15.27;8.38;;;1.80;59.20;;;;;;5098706;28;20508;-87
2022/03/08 06:12:58;;;;;;;19.70;9.95;;;1.80;59.20;;;;;;5101500;28;20176;-85
2022/03/08 06:15:23;;;;;;;25.77;13.60;;;1.70;59.20;;;;;;5103923;28;20195;-85
2022/03/08 06:17:49;;;;;;;18.47;9.73;;;1.70;59.30;;;;;;5106241;28;20417;-86
2022/03/08 06:20:15;;;;;;;15.03;9.83;;;1.70;59.40;;;;;;5106289;28;20229;-85
2022/03/08 06:22:41;;;;;;;18.73;9.23;;;1.80;59.40;;;;;;5108423;28;20172;-84
2022/03/08 06:25:07;;;;;;;15.60;8.53;;;1.90;59.20;;;;;;5105194;28;20425;-87
2022/03/08 06:27:33;;;;;;;14.65;8.32;;;1.80;59.00;;;;;;5109140;28;20183;-85
2022/03/08 06:29:59;;;;;;;13.90;8.95;;;1.80;59.00;;;;;;5114306;28;20203;-85
2022/03/08 06:32:24;;;;;;;16.67;8.63;;;1.90;59.20;;;;;;5112782;28;20187;-86
2022/03/08 06:34:51;;;;;;;12.50;8.30;;;1.80;59.10;;;;;;5099026;28;20191;-84
2022/03/08 06:37:18;;;;;;;25.45;11.43;;;1.80;59.20;;;;;;5099000;28;20418;-85
2022/03/08 06:39:47;;;;;;;22.95;9.70;;;1.80;59.10;;;;;;5098308;28;20180;-86
2022/03/08 06:42:13;;;;;;;22.52;11.55;;;1.60;59.00;;;;;;5097977;28;20192;-84
2022/03/08 06:44:39;;;;;;;24.70;13.73;;;1.60;59.30;;;;;;5097414;28;20207;-84
2022/03/08 06:47:06;;;;;;;22.20;11.82;;;1.70;59.50;;;;;;5097617;28;20414;-84
2022/03/08 06:49:33;;;;;;;29.92;13.25;;;1.80;59.50;;;;;;5097603;28;20207;-84
2022/03/08 06:51:59;;;;;;;42.90;15.25;;;1.80;59.40;;;;;;5098627;28;20597;-84
2022/03/08 06:54:25;;;;;;;34.65;15.15;;;1.90;59.40;;;;;;5099384;28;20204;-84
2022/03/08 06:56:51;;;;;;;20.13;10.30;;;1.80;59.10;;;;;;5101112;28;20214;-84
2022/03/08 06:59:17;;;;;;;24.40;10.67;;;1.90;59.20;;;;;;5099835;28;20455;-85
2022/03/08 07:01:43;;;;;;;37.40;13.90;;;2.00;59.00;;;;;;5095294;28;20486;-84
2022/03/08 07:04:10;;;;;;;25.37;11.10;;;1.90;59.10;;;;;;5097900;28;20677;-84
2022/03/08 07:06:36;;;;;;;27.63;11.77;;;1.80;59.20;;;;;;5095714;28;20213;-84
2022/03/08 07:09:08;;;;;;;23.15;11.02;;;1.90;59.30;;;;;;5086448;28;20184;-83
2022/03/08 07:11:36;;;;;;;13.82;8.90;;;2.00;59.30;;;;;;5097479;28;20644;-84
2022/03/08 07:14:03;;;;;;;19.40;11.02;;;2.10;59.20;;;;;;5097633;28;20620;-83
2022/03/08 07:16:29;;;;;;;30.50;9.80;;;2.10;58.60;;;;;;5096777;28;20198;-84
2022/03/08 07:18:55;;;;;;;20.10;9.27;;;2.20;58.40;;;;;;5096732;28;20734;-86
2022/03/08 07:21:20;;;;;;;16.83;8.73;;;2.20;58.20;;;;;;5096742;28;20453;-84
2022/03/08 07:23:46;;;;;;;15.53;8.50;;;2.30;58.10;;;;;;5096740;28;20255;-84
2022/03/08 07:26:12;;;;;;;19.03;9.10;;;2.40;57.70;;;;;;5104161;28;20205;-86
2022/03/08 07:28:38;;;;;;;17.37;8.53;;;2.40;57.40;;;;;;5104826;28;20168;-83
2022/03/08 07:31:04;;;;;;;15.87;8.70;;;2.50;57.20;;;;;;5112523;28;20430;-84
2022/03/08 07:33:30;;;;;;;14.02;9.02;;;2.60;57.10;;;;;;5114629;28;20906;-86
2022/03/08 07:35:56;;;;;;;14.93;8.60;;;2.50;57.00;;;;;;5106435;28;20195;-85
2022/03/08 07:38:22;;;;;;;17.60;9.40;;;2.60;56.80;;;;;;5110862;28;20460;-87
2022/03/08 07:40:47;;;;;;;19.43;9.77;;;2.70;56.70;;;;;;5111695;28;20473;-85
2022/03/08 07:43:13;;;;;;;22.57;9.20;;;2.80;56.70;;;;;;5115400;28;20418;-85
2022/03/08 07:45:39;;;;;;;16.20;9.40;;;2.90;56.50;;;;;;5097236;28;20517;-86
2022/03/08 07:48:06;;;;;;;15.67;7.80;;;2.90;56.30;;;;;;5113431;28;20168;-87
2022/03/08 07:50:36;;;;;;;16.55;7.85;;;2.90;56.40;;;;;;5109013;28;20440;-86
2022/03/08 07:53:03;;;;;;;15.77;9.95;;;2.90;56.00;;;;;;5101524;28;20188;-87
2022/03/08 07:55:30;;;;;;;11.43;7.50;;;2.80;55.80;;;;;;5096164;28;20255;-87
2022/03/08 07:58:00;;;;;;;12.80;8.40;;;2.60;55.90;;;;;;5097560;28;20187;-87
2022/03/08 08:00:27;;;;;;;19.30;8.98;;;2.80;56.10;;;;;;5099876;28;20187;-86
2022/03/08 08:02:53;;;;;;;15.63;8.48;;;2.70;55.70;;;;;;5104721;28;20184;-87
2022/03/08 08:05:20;;;;;;;15.13;8.53;;;2.80;55.60;;;;;;5099214;28;20216;-87
2022/03/08 08:07:46;;;;;;;14.43;9.52;;;2.80;55.50;;;;;;5100824;28;20402;-87
2022/03/08 08:10:12;;;;;;;14.32;8.90;;;2.80;55.20;;;;;;5095587;28;20171;-87
2022/03/08 08:12:38;;;;;;;13.10;8.82;;;2.90;55.20;;;;;;5095740;28;20176;-88
2022/03/08 08:15:06;;;;;;;15.57;8.77;;;3.00;55.00;;;;;;5098691;28;20244;-87
2022/03/08 08:17:32;;;;;;;14.07;9.07;;;2.80;54.50;;;;;;5095726;28;20188;-87
2022/03/08 08:19:58;;;;;;;26.30;7.97;;;2.90;54.80;;;;;;5095631;28;20174;-88
2022/03/08 08:22:24;;;;;;;10.98;7.47;;;3.10;54.70;;;;;;5095269;28;20187;-87
2022/03/08 08:24:50;;;;;;;15.37;8.10;;;3.20;54.40;;;;;;5095226;28;20196;-87
2022/03/08 08:27:16;;;;;;;12.93;7.47;;;3.10;54.10;;;;;;5096413;28;20467;-87
2022/03/08 08:29:42;;;;;;;15.57;8.63;;;3.00;54.10;;;;;;5097006;28;20278;-87
2022/03/08 08:32:07;;;;;;;14.20;9.17;;;3.10;54.70;;;;;;5096074;28;20453;-87
2022/03/08 08:34:33;;;;;;;12.75;7.55;;;3.50;54.70;;;;;;5091301;28;20218;-88
2022/03/08 08:36:59;;;;;;;17.37;8.10;;;3.70;54.00;;;;;;5077000;28;20187;-88
2022/03/08 08:39:25;;;;;;;16.67;8.50;;;3.80;53.30;;;;;;5095875;28;20530;-87
2022/03/08 08:41:51;;;;;;;13.67;7.60;;;3.70;52.30;;;;;;5102040;28;20210;-87
2022/03/08 08:44:19;;;;;;;15.50;9.07;;;3.80;52.30;;;;;;5107329;28;20457;-86
2022/03/08 08:46:48;;;;;;;21.27;8.73;;;4.00;51.80;;;;;;5096741;28;20203;-86
2022/03/08 08:49:13;;;;;;;15.52;7.90;;;4.10;50.90;;;;;;5097879;28;20179;-85
2022/03/08 08:51:39;;;;;;;12.93;7.20;;;4.10;50.50;;;;;;5099833;28;20187;-84
2022/03/08 08:54:05;;;;;;;18.43;8.30;;;3.80;50.30;;;;;;5109023;28;20438;-84
2022/03/08 08:56:35;;;;;;;10.17;6.50;;;3.90;50.50;;;;;;5100714;28;20184;-84
2022/03/08 08:59:04;;;;;;;14.57;8.93;;;4.10;50.40;;;;;;5096284;28;20232;-88
2022/03/08 09:01:30;;;;;;;12.27;6.95;;;4.30;49.70;;;;;;5095619;28;20282;-88
2022/03/08 09:03:56;;;;;;;13.95;8.27;;;4.30;48.90;;;;;;5095433;28;20223;-88
2022/03/08 09:06:22;;;;;;;13.17;8.10;;;4.50;49.00;;;;;;5097253;28;20190;-87
2022/03/08 09:08:48;;;;;;;15.37;7.80;;;4.40;48.00;;;;;;5096190;28;20493;-87
2022/03/08 09:11:13;;;;;;;10.40;6.73;;;4.40;47.90;;;;;;5098932;28;20421;-85
2022/03/08 09:13:40;;;;;;;11.47;7.43;;;4.60;48.20;;;;;;5096725;28;20203;-86
2022/03/08 09:16:06;;;;;;;11.98;7.05;;;4.80;47.60;;;;;;5096619;28;20438;-85
2022/03/08 09:18:32;;;;;;;10.48;7.10;;;4.90;46.50;;;;;;5096937;28;20180;-84
2022/03/08 09:20:58;;;;;;;12.67;7.97;;;5.10;46.40;;;;;;5100920;28;20207;-84
2022/03/08 09:23:23;;;;;;;10.80;7.33;;;5.20;45.70;;;;;;5109767;28;20413;-86
2022/03/08 09:25:49;;;;;;;15.03;7.10;;;5.10;45.10;;;;;;5104086;28;20287;-84
2022/03/08 09:28:15;;;;;;;9.77;6.17;;;5.10;45.00;;;;;;5098508;28;20199;-86
2022/03/08 09:30:42;;;;;;;10.40;6.73;;;5.00;44.60;;;;;;5098189;28;20278;-85
2022/03/08 09:33:08;;;;;;;15.90;7.00;;;4.90;44.70;;;;;;5099105;28;20172;-86
2022/03/08 09:35:34;;;;;;;12.60;7.27;;;5.20;44.40;;;;;;5110377;28;20211;-88
2022/03/08 09:38:01;;;;;;;10.70;5.80;;;5.30;43.90;;;;;;5104134;28;20425;-85
2022/03/08 09:40:27;;;;;;;8.82;6.18;;;5.30;43.70;;;;;;5102138;28;20534;-84
2022/03/08 09:42:53;;;;;;;10.60;7.13;;;5.20;43.00;;;;;;5098145;28;20201;-85
2022/03/08 09:45:19;;;;;;;8.50;5.55;;;5.20;43.00;;;;;;5096810;28;20429;-86
2022/03/08 09:47:45;;;;;;;12.73;7.43;;;5.40;42.50;;;;;;5097984;28;20176;-86
2022/03/08 09:50:12;;;;;;;11.57;6.10;;;5.60;42.40;;;;;;5097862;28;20535;-84
2022/03/08 09:52:39;;;;;;;10.65;6.10;;;5.70;42.20;;;;;;5096150;28;20207;-87
2022/03/08 09:55:08;;;;;;;8.45;6.38;;;5.60;41.20;;;;;;5097508;28;20200;-87
2022/03/08 09:57:34;;;;;;;12.55;6.07;;;5.70;42.00;;;;;;5097710;28;20229;-88
2022/03/08 10:00:00;;;;;;;8.00;5.80;;;5.80;41.90;;;;;;5111959;28;20171;-87
2022/03/08 10:02:42;;;;;;;10.52;7.10;;;5.80;41.60;;;;;;5102664;28;20226;-87
2022/03/08 10:05:08;;;;;;;10.95;7.40;;;6.00;41.70;;;;;;5107847;28;20183;-85
2022/03/08 10:07:34;;;;;;;11.85;7.32;;;5.90;41.20;;;;;;5109002;28;20251;-86
2022/03/08 10:10:00;;;;;;;7.57;6.67;;;5.90;41.20;;;;;;5108574;28;20225;-85
2022/03/08 10:12:27;;;;;;;9.52;6.32;;;6.10;41.50;;;;;;5109201;28;20414;-87
2022/03/08 10:14:53;;;;;;;10.30;6.28;;;6.30;42.70;;;;;;5098612;28;20233;-87
2022/03/08 10:17:37;;;;;;;12.20;6.43;;;6.20;41.00;;;;;;5107353;28;20198;-87
2022/03/08 10:20:07;;;;;;;9.20;6.75;;;6.10;40.70;;;;;;5100440;28;20463;-87
2022/03/08 10:22:37;;;;;;;9.13;5.55;;;6.30;40.30;;;;;;5096759;28;20192;-87
2022/03/08 10:25:16;;;;;;;7.40;5.70;;;6.20;39.30;;;;;;5097738;28;20203;-87
2022/03/08 10:27:58;;;;;;;7.55;5.07;;;6.30;39.20;;;;;;5099698;28;20266;-87
2022/03/08 10:30:27;;;;;;;12.40;5.72;;;6.40;38.90;;;;;;5098793;28;20174;-87
2022/03/08 10:32:56;;;;;;;9.80;6.10;;;6.60;38.90;;;;;;5100547;28;20188;-87
2022/03/08 10:35:27;;;;;;;10.10;5.20;;;6.80;39.10;;;;;;5083299;28;20332;-87
2022/03/08 10:38:00;;;;;;;9.85;6.25;;;7.00;39.00;;;;;;5100456;28;20182;-87
2022/03/08 10:40:32;;;;;;;6.38;5.35;;;7.00;38.60;;;;;;5100351;28;20164;-87
2022/03/08 10:43:05;;;;;;;8.10;5.93;;;7.10;38.90;;;;;;5098291;28;20244;-86
2022/03/08 10:45:33;;;;;;;8.75;5.55;;;7.30;38.80;;;;;;5100307;28;20206;-87
2022/03/08 10:48:00;;;;;;;8.82;6.20;;;7.20;37.20;;;;;;5105801;28;20280;-87
2022/03/08 10:50:34;;;;;;;8.98;6.18;;;7.10;36.90;;;;;;5108769;28;20180;-87
2022/03/08 10:53:02;;;;;;;8.15;5.93;;;7.10;36.20;;;;;;5112065;28;20199;-86
2022/03/08 10:55:36;;;;;;;9.80;6.00;;;7.30;36.40;;;;;;5112825;28;20208;-87
2022/03/08 10:58:12;;;;;;;9.50;6.40;;;7.50;36.60;;;;;;5097603;28;20506;-87
2022/03/08 11:00:39;;;;;;;8.50;5.35;;;7.50;36.90;;;;;;5080705;28;20204;-87
2022/03/08 11:03:09;;;;;;;6.47;5.68;;;7.50;36.30;;;;;;5099260;28;20233;-86
2022/03/08 11:05:38;;;;;;;9.95;6.38;;;7.40;35.60;;;;;;5097715;28;20226;-86
2022/03/08 11:08:05;;;;;;;8.95;6.30;;;7.40;35.10;;;;;;5098974;28;20179;-85
2022/03/08 11:10:32;;;;;;;9.45;6.35;;;7.50;35.60;;;;;;5096838;28;20249;-87
2022/03/08 11:12:59;;;;;;;12.68;5.78;;;7.60;35.70;;;;;;5097844;28;20181;-86
2022/03/08 11:15:28;;;;;;;9.63;5.13;;;7.80;35.60;;;;;;5111735;28;20259;-86
2022/03/08 11:17:56;;;;;;;9.85;6.10;;;7.70;34.80;;;;;;5111192;28;20187;-86
2022/03/08 11:20:23;;;;;;;7.57;5.95;;;7.80;34.80;;;;;;5098197;28;20664;-85
2022/03/08 11:22:55;;;;;;;7.90;5.72;;;7.80;34.80;;;;;;5097593;28;20176;-87
2022/03/08 11:25:22;;;;;;;5.85;4.68;;;8.00;35.70;;;;;;5098054;28;20195;-85
2022/03/08 11:27:48;;;;;;;8.30;6.75;;;8.10;35.50;;;;;;5107616;28;20171;-86
2022/03/08 11:30:27;;;;;;;8.35;6.53;;;8.10;35.30;;;;;;5109312;28;20213;-86
2022/03/08 11:33:17;;;;;;;12.05;6.43;;;8.30;35.50;;;;;;5098547;28;20180;-87
2022/03/08 11:35:55;;;;;;;8.90;5.95;;;8.30;35.40;;;;;;5097233;28;20203;-87
2022/03/08 11:38:21;;;;;;;7.63;5.45;;;8.10;34.00;;;;;;5096893;28;20179;-86
2022/03/08 11:40:53;;;;;;;10.47;6.00;;;8.00;33.70;;;;;;5096114;28;20214;-86
2022/03/08 11:43:20;;;;;;;11.07;6.40;;;8.10;34.10;;;;;;5098437;28;20398;-87
2022/03/08 11:45:48;;;;;;;7.88;5.97;;;8.10;33.90;;;;;;5096252;28;20199;-87
2022/03/08 11:48:19;;;;;;;8.82;5.78;;;8.10;34.50;;;;;;5097369;28;20175;-88
2022/03/08 11:50:45;;;;;;;9.43;5.30;;;8.20;34.40;;;;;;5097730;28;20188;-88
2022/03/08 11:53:16;;;;;;;10.18;6.18;;;8.30;33.60;;;;;;5096575;28;20183;-87
2022/03/08 11:55:47;;;;;;;5.75;5.18;;;8.50;34.30;;;;;;5097773;28;20202;-87
2022/03/08 11:58:21;;;;;;;9.55;6.20;;;8.70;34.60;;;;;;5097065;28;20179;-88
2022/03/08 12:00:57;;;;;;;10.85;4.85;;;8.80;34.20;;;;;;5081205;28;20218;-87
2022/03/08 12:03:23;;;;;;;7.65;5.55;;;8.90;33.80;;;;;;5108201;28;20256;-87
2022/03/08 12:05:55;;;;;;;11.30;6.43;;;8.80;33.90;;;;;;5109185;28;20202;-88
2022/03/08 12:08:30;;;;;;;8.75;5.18;;;8.80;33.60;;;;;;5100189;28;20807;-87
2022/03/08 12:11:00;;;;;;;15.43;6.38;;;8.70;33.10;;;;;;5098552;28;20179;-87
2022/03/08 12:13:29;;;;;;;9.20;5.93;;;8.80;32.80;;;;;;5098212;28;20176;-87
2022/03/08 12:16:06;;;;;;;6.22;5.35;;;8.90;33.60;;;;;;5098705;28;20199;-84
2022/03/08 12:18:36;;;;;;;10.60;6.85;;;9.00;34.00;;;;;;5098036;28;20195;-85
2022/03/08 12:21:17;;;;;;;8.70;5.20;;;9.10;33.70;;;;;;5097590;28;20223;-86
2022/03/08 12:23:50;;;;;;;9.50;6.10;;;9.20;33.10;;;;;;5097218;28;20179;-85
2022/03/08 12:26:36;;;;;;;8.18;5.32;;;9.30;33.30;;;;;;5098259;28;20171;-85
2022/03/08 12:29:15;;;;;;;7.97;6.30;;;9.20;32.20;;;;;;5096583;28;20206;-85
2022/03/08 12:32:04;;;;;;;10.18;6.60;;;9.20;31.50;;;;;;5098115;28;20198;-85
2022/03/08 12:34:36;;;;;;;7.45;4.97;;;9.30;31.30;;;;;;5099244;28;20183;-85
2022/03/08 12:37:21;;;;;;;7.68;5.43;;;9.30;32.10;;;;;;5098581;28;20195;-86
2022/03/08 12:40:01;;;;;;;7.88;4.90;;;9.40;31.90;;;;;;5100078;28;20214;-85
2022/03/08 12:42:32;;;;;;;8.13;5.80;;;9.40;31.00;;;;;;5098291;28;20210;-86
2022/03/08 12:45:00;;;;;;;7.53;5.80;;;9.40;31.00;;;;;;5099584;28;20213;-85
2022/03/08 12:47:29;;;;;;;5.38;4.75;;;9.60;31.20;;;;;;5096227;28;20214;-85
2022/03/08 12:50:00;;;;;;;6.72;5.15;;;9.60;30.70;;;;;;5099256;28;20644;-86